Aérodrome :
LOGIN :

S'inscrire | Disclaimer

   EN    FR    IT 

 










Légende :    VFR   VFR Marginal   IFR   IFR Intensif   IFR Très Intensif
Visi : 
Plafond : 
>= 8 km
>= 3000ft
5 à 8 km
1000 à 3000 ft
1500m à 5 km
500 à 1000 ft
800 à 1500m
200 à 500 ft
< 800m
< 200 ft
Symboles :   Orages  Brouillard  Fortes neiges  Fortes précipitations  Vent > 20 kt
SIGMETs :   Divers  Orages  Givrage  Turbulence  Onde Orograph.  Cendres Volcan.






- Altitude de l'aérodrome : 545 ft
- Code IATA : PZY


LZPP - Piešťany

DERNIER METAR :
  • 011500Z 18003KT 100V250 CAVOK 08/M08 Q1019

METARs EXPIRÉS :
  • 011430Z VRB02KT CAVOK 08/M09 Q1019
  • 011400Z VRB03KT CAVOK 08/M08 Q1020
  • 011330Z 18004KT 150V240 CAVOK 08/M08 Q1020
  • 011300Z VRB04KT CAVOK 08/M07 Q1021
  • 011230Z 20004KT 150V250 CAVOK 07/M07 Q1021

TAF TAF LZPP
Valide du 01 à 15h jusqu'au 02 à 00h UTC


011400Z 0115/0200 20005KT CAVOK
BECMG 0118/0120 VRB02KT



MET'MAP, la Météo Aéronautique d'un coup d'oeil ! - Copyright ORBIFLY Décembre 2007 - Disclaimer

ORBIFLY MET'MAP TEAM :

Programmation & Développement : Alexandra Zaïnal
Sur une idée originale de : Baudouin d'Aumeries
Assistance à la programmation : Marc-Olivier Méhu
Soutien technique & logistique : Manuel Goepfert

Contact : metmap@orbifly.com




SOURCES & CREDITS :

   NOAA